Time;durP1;ratioP1;P1;durP2;ratioP2;P2;SDS_P1;SDS_P2;PMS_P1;PMS_P2;Temp;Humidity;BMP_temperature;BMP_pressure;BME280_temperature;BME280_humidity;BME280_pressure;Samples;Min_cycle;Max_cycle;Signal;HPM_P1;HPM_P2
2022/05/31 20:03:56;;;;;;;3.83;2.85;;;;;;;16.86;57.37;100519.81;5069291;28;20387;-65
2022/05/31 20:06:22;;;;;;;3.65;2.47;;;;;;;16.70;57.44;100516.97;5067559;28;20403;-65
2022/05/31 20:11:34;;;;;;;6.05;3.40;;;;;;;16.39;57.83;100531.56;5067668;28;20098;-65
2022/05/31 20:13:59;;;;;;;8.55;3.75;;;;;;;16.35;57.79;100529.97;5064452;28;20119;-65
2022/05/31 20:16:25;;;;;;;5.90;3.22;;;;;;;16.25;58.07;100529.50;5067527;28;20061;-64
2022/05/31 20:19:06;;;;;;;3.83;3.00;;;;;;;16.20;58.18;100534.16;5067953;28;20079;-64
2022/05/31 20:21:33;;;;;;;4.00;2.95;;;;;;;16.24;57.91;100538.41;5067573;28;20045;-64
2022/05/31 20:24:02;;;;;;;5.70;3.30;;;;;;;16.27;57.79;100542.69;5068611;28;20040;-66
2022/05/31 20:26:30;;;;;;;5.22;3.47;;;;;;;16.24;57.90;100543.72;5061326;28;20048;-64
2022/05/31 20:28:56;;;;;;;4.72;3.60;;;;;;;16.27;57.74;100542.69;5066157;28;20043;-66
2022/05/31 20:31:22;;;;;;;6.00;4.28;;;;;;;16.19;58.25;100542.16;5062741;28;20428;-65
2022/05/31 20:33:47;;;;;;;7.13;4.15;;;;;;;16.14;58.38;100533.53;5066934;28;20037;-65
2022/05/31 20:36:13;;;;;;;5.63;4.10;;;;;;;16.08;58.47;100536.44;5065476;28;20028;-65
2022/05/31 20:38:49;;;;;;;7.65;5.20;;;;;;;15.96;59.66;100525.44;5069998;28;20028;-65
2022/05/31 20:41:19;;;;;;;6.65;4.53;;;;;;;15.94;59.32;100515.81;5068971;28;20029;-64
2022/05/31 20:43:47;;;;;;;7.53;4.75;;;;;;;16.06;58.73;100527.69;5069134;28;20391;-65
2022/05/31 20:46:13;;;;;;;9.75;5.60;;;;;;;16.11;58.49;100525.72;5068299;28;20792;-65
2022/05/31 20:48:39;;;;;;;8.15;6.25;;;;;;;16.14;58.56;100515.00;5069052;28;20067;-64
2022/05/31 20:51:06;;;;;;;6.82;4.75;;;;;;;16.20;58.22;100520.03;5068860;28;20070;-65
2022/05/31 20:53:35;;;;;;;8.88;5.72;;;;;;;16.23;58.05;100525.19;5050426;28;20556;-65
2022/05/31 20:56:02;;;;;;;6.55;4.63;;;;;;;16.20;58.08;100517.41;5048784;28;20041;-64
2022/05/31 20:58:28;;;;;;;9.52;6.50;;;;;;;16.14;58.27;100509.69;5049221;28;20037;-65
2022/05/31 21:00:53;;;;;;;8.35;5.28;;;;;;;16.07;58.22;100516.16;5048662;28;20029;-65
2022/05/31 21:03:18;;;;;;;8.55;5.35;;;;;;;16.05;58.38;100516.25;5043829;28;20134;-65
2022/05/31 21:05:44;;;;;;;6.07;4.75;;;;;;;15.99;58.44;100516.50;5035545;28;20116;-64
2022/05/31 21:08:10;;;;;;;8.68;5.28;;;;;;;15.91;58.71;100518.59;5035681;28;20037;-65
2022/05/31 21:10:38;;;;;;;7.85;4.95;;;;;;;15.98;58.48;100522.72;5035721;28;20116;-65
2022/05/31 21:13:07;;;;;;;7.50;4.82;;;;;;;15.87;58.65;100517.84;5035314;28;20072;-65
2022/05/31 21:15:32;;;;;;;7.55;4.82;;;;;;;15.78;59.04;100515.59;5035187;28;20481;-65
2022/05/31 21:17:58;;;;;;;7.90;5.35;;;;;;;15.64;59.34;100507.31;5035134;28;20037;-65
2022/05/31 21:20:23;;;;;;;7.20;4.85;;;;;;;15.56;59.57;100512.03;5035437;28;20113;-66
2022/05/31 21:22:49;;;;;;;7.70;5.10;;;;;;;15.48;59.86;100517.69;5035060;28;20064;-65
2022/05/31 21:25:17;;;;;;;8.48;4.95;;;;;;;15.45;60.26;100513.34;5035367;28;20029;-66
2022/05/31 21:27:43;;;;;;;7.03;5.10;;;;;;;15.41;60.12;100516.19;5035083;28;20432;-64
2022/05/31 21:30:09;;;;;;;6.55;4.72;;;;;;;15.47;60.00;100518.56;5033938;28;20033;-63
2022/05/31 21:32:38;;;;;;;6.47;4.53;;;;;;;15.46;59.92;100512.44;5035206;28;20116;-65
2022/05/31 21:35:05;;;;;;;8.32;5.75;;;;;;;15.52;60.01;100520.13;5034782;28;20045;-65
2022/05/31 21:37:30;;;;;;;8.20;5.45;;;;;;;15.59;59.85;100522.53;5035301;28;20037;-66
2022/05/31 21:42:39;;;;;;;7.95;4.63;;;;;;;15.60;59.83;100514.53;5034792;28;20546;-65
2022/05/31 21:45:06;;;;;;;6.28;4.88;;;;;;;15.62;59.64;100512.69;5033361;28;20041;-66
2022/05/31 21:47:32;;;;;;;7.55;4.90;;;;;;;15.70;59.54;100515.91;5035048;28;20084;-66
2022/05/31 21:49:58;;;;;;;5.75;4.32;;;;;;;15.74;59.49;100516.66;5034689;28;20033;-66
2022/05/31 21:52:24;;;;;;;8.80;5.22;;;;;;;15.74;59.45;100514.00;5034836;28;20091;-66
2022/05/31 21:54:53;;;;;;;6.63;4.95;;;;;;;15.72;59.67;100513.22;5034492;28;20072;-66
2022/05/31 21:57:25;;;;;;;7.03;4.70;;;;;;;15.74;59.59;100511.34;5028475;28;20026;-66
2022/05/31 21:59:50;;;;;;;7.65;5.30;;;;;;;15.69;59.68;100518.63;5034718;28;20586;-66
2022/05/31 22:02:19;;;;;;;6.32;4.63;;;;;;;15.74;59.77;100517.50;5034197;28;20140;-66
2022/05/31 22:04:45;;;;;;;6.50;5.00;;;;;;;15.71;59.73;100522.06;5034266;28;20037;-66
2022/05/31 22:07:11;;;;;;;7.13;4.88;;;;;;;15.68;59.98;100514.25;5034477;28;20033;-67
2022/05/31 22:09:37;;;;;;;7.75;4.93;;;;;;;15.72;59.72;100518.50;5034622;28;20034;-66
2022/05/31 22:12:03;;;;;;;6.90;5.10;;;;;;;15.77;59.68;100522.69;5034082;28;20472;-65
2022/05/31 22:14:28;;;;;;;7.50;5.03;;;;;;;15.72;59.79;100515.88;5033923;28;20465;-66
2022/05/31 22:16:54;;;;;;;7.95;4.47;;;;;;;15.74;59.65;100514.00;5033551;28;20034;-65
2022/05/31 22:19:20;;;;;;;8.05;4.82;;;;;;;15.66;59.98;100502.84;5034517;28;20440;-65
2022/05/31 22:21:47;;;;;;;7.35;5.47;;;;;;;15.66;60.02;100508.16;5034085;28;20049;-66
2022/05/31 22:24:14;;;;;;;8.38;5.07;;;;;;;15.66;60.10;100501.06;5034155;28;20038;-65
2022/05/31 22:26:41;;;;;;;6.68;5.05;;;;;;;15.77;59.86;100508.59;5034065;28;20512;-66
2022/05/31 22:29:08;;;;;;;7.47;5.22;;;;;;;15.75;59.85;100500.69;5034107;28;20037;-66
2022/05/31 22:31:34;;;;;;;6.38;5.20;;;;;;;15.88;59.70;100493.09;5034213;28;20041;-65
2022/05/31 22:33:59;;;;;;;7.50;5.28;;;;;;;15.81;59.97;100496.94;5033840;28;20052;-65
2022/05/31 22:36:27;;;;;;;7.38;5.20;;;;;;;15.80;59.91;100497.88;5034126;28;20030;-65
2022/05/31 22:38:58;;;;;;;6.60;4.93;;;;;;;15.85;60.19;100501.19;5033531;28;20033;-65
2022/05/31 22:41:27;;;;;;;7.63;4.95;;;;;;;15.93;59.60;100491.13;5028519;28;20045;-65
2022/05/31 22:43:57;;;;;;;6.60;4.38;;;;;;;16.08;59.11;100499.34;5033814;28;20034;-65
2022/05/31 22:46:28;;;;;;;7.03;4.70;;;;;;;16.04;59.36;100497.75;5028038;28;20483;-65
2022/05/31 22:48:53;;;;;;;6.10;4.72;;;;;;;16.17;58.98;100499.81;5033499;28;20064;-65
2022/05/31 22:51:19;;;;;;;6.63;5.40;;;;;;;16.21;58.87;100498.75;5033983;28;20112;-66
2022/05/31 22:53:44;;;;;;;7.82;4.78;;;;;;;16.29;58.58;100497.56;5033239;28;20037;-64
2022/05/31 22:56:12;;;;;;;8.38;4.93;;;;;;;16.31;58.51;100485.94;5033459;28;20465;-66
2022/05/31 22:58:38;;;;;;;7.13;4.97;;;;;;;16.43;58.27;100488.06;5033503;28;20048;-66
2022/05/31 23:01:07;;;;;;;6.32;4.78;;;;;;;16.36;58.69;100491.94;5033209;28;20108;-65
2022/05/31 23:03:33;;;;;;;7.28;4.68;;;;;;;16.43;58.17;100490.72;5033224;28;20140;-65
2022/05/31 23:06:00;;;;;;;5.28;4.13;;;;;;;16.48;58.07;100502.00;5032978;28;20124;-64
2022/05/31 23:08:26;;;;;;;6.68;4.28;;;;;;;16.46;58.12;100511.81;5033324;28;20044;-65
2022/05/31 23:10:52;;;;;;;6.05;4.32;;;;;;;16.45;58.16;100515.41;5033374;28;20041;-66
2022/05/31 23:13:20;;;;;;;6.05;4.13;;;;;;;16.39;58.46;100518.31;5033354;28;20041;-65
2022/05/31 23:15:52;;;;;;;5.95;3.85;;;;;;;16.45;58.48;100526.00;5033107;28;20037;-65
2022/05/31 23:18:19;;;;;;;7.05;4.65;;;;;;;16.56;58.35;100527.34;5033176;28;20457;-65
2022/05/31 23:20:55;;;;;;;6.15;4.63;;;;;;;16.65;59.05;100541.03;5032896;28;20396;-65
2022/05/31 23:26:06;;;;;;;6.93;4.68;;;;;;;16.91;58.11;100565.56;5032999;28;20310;-66
2022/05/31 23:28:32;;;;;;;6.03;4.43;;;;;;;16.97;58.17;100571.47;5032848;28;20042;-66
2022/05/31 23:31:03;;;;;;;9.52;5.22;;;;;;;17.05;58.11;100562.31;5032961;28;20057;-66
2022/05/31 23:33:30;;;;;;;6.60;4.85;;;;;;;17.16;57.72;100555.59;5033073;28;20033;-65
2022/05/31 23:35:57;;;;;;;7.63;5.35;;;;;;;17.24;57.87;100550.78;5032933;28;20046;-66
2022/05/31 23:38:23;;;;;;;8.38;5.78;;;;;;;17.33;57.70;100544.16;5033174;28;20037;-65
2022/05/31 23:40:48;;;;;;;7.47;5.13;;;;;;;17.38;57.60;100538.63;5032740;28;20080;-65
2022/05/31 23:43:14;;;;;;;6.05;4.90;;;;;;;17.51;57.29;100533.59;5032852;28;20045;-66
2022/05/31 23:45:40;;;;;;;7.60;5.68;;;;;;;17.53;57.47;100523.78;5032882;28;20117;-66
2022/05/31 23:48:08;;;;;;;7.07;5.15;;;;;;;17.49;57.77;100518.59;5032225;28;20116;-65
2022/05/31 23:50:38;;;;;;;10.00;7.10;;;;;;;17.43;58.68;100513.59;5033129;28;20044;-66
2022/05/31 23:53:05;;;;;;;8.77;5.13;;;;;;;17.52;58.13;100508.78;5032571;28;20040;-66
2022/05/31 23:55:31;;;;;;;6.28;5.40;;;;;;;17.51;58.22;100509.69;5032853;28;20195;-66
2022/05/31 23:57:56;;;;;;;6.30;5.22;;;;;;;17.53;58.35;100506.03;5032823;28;20489;-66
